Espace membre
Imprimable
Challenges > EBBT - Malmedy, 13/06/2010, BEL - EBMC #3 - Le Raid des Hautes Fagnes
Liste des rapports > 65km - Classement
Recherche: Page: [1]
31 Entrées
 
Visualisez vos photos fournies par Sportograf en cliquant sur la petite icone située en début de ligne!

Les réclamations ne sont plus acceptées, les résultats sont considérés comme définitifs.
RangNrLicenceNomAgeIOCEquipeRéelTempsTkmMoy.ScrLocalité
Vos photos grâce à Sportograf1.1962BEL19551127GEEMTJENS Rudi55BELMTB-RUDI3:47:063:47:093:30 17.1729
Vos photos grâce à Sportograf2.1520BEL19570116ROSSIGNOL Jean- Luc53BELAFFLIGEMS WIELERTEAM3:56:443:57:043:39 16.4543TERNAT
Vos photos grâce à Sportograf3.1445SCHULLER Heinz60DEUBSV PROFIL HÜRTGENWALD4:06:554:07:013:49 15.7964ELSDORF
Vos photos grâce à Sportograf4.1658BUELENS Johan52BELVWB/HELLBIKERS4:17:254:17:373:58 15.1487ROTSELAAR
Vos photos grâce à Sportograf5.1700SMOLDERS Marcel55BEL4:24:214:24:464:05 14.7399WELLEN
Vos photos grâce à Sportograf6.1927ALVAREZ Marc50BEL4:36:264:37:024:16 14.08133VIELSALM
Vos photos grâce à Sportograf7.1861VAN RIJNSWOU Wim55NLDNOORDBIKERS5:04:425:05:064:42 12.78207OEGSTGEEST
Vos photos grâce à Sportograf8.1815DE VAAL Peter51NLDLRTV SWIFT5:06:215:06:384:44 12.72213LEIDEN
Vos photos grâce à Sportograf9.1860HALFWERK Johan52NLDBIKEXTREME5:19:235:19:474:56 12.20251DEVENTER
Vos photos grâce à Sportograf10.1359GORDON Piet Hein50NLD5:27:245:27:405:03 11.90276
Vos photos grâce à Sportograf11.1983TER BORK Jan50NLD5:30:195:30:455:06 11.79286
Vos photos grâce à Sportograf12.1920WOLF Didier51BEL5:37:525:38:185:13 11.53313BRUXELLES
Vos photos grâce à Sportograf13.1957RESTEAU Philippe56BEL5:48:455:49:115:23 11.17353WATERLOO
Vos photos grâce à Sportograf14.1668LAENEN Daniel53BELCONNECTION-GRANVILLE RACI5:49:275:49:555:23 11.15356LINDEN
Vos photos grâce à Sportograf15.1857PACOLET Omer56BEL5:51:585:52:145:26 11.07362BAS-OHA
Vos photos grâce à Sportograf16.1357VERSTAPPEN Thijs51NLD5:54:035:54:185:28 11.01368CJ NEER
Vos photos grâce à Sportograf17.1464LOISIRDEWEER Vincent51BELCYCLO BIKE ANTWERPEN6:04:096:04:195:37 10.71388
Vos photos grâce à Sportograf18.1966NED19580404SCHULTE Eric52NLDFCTRAPPIST6:04:576:05:285:38 10.67391
Vos photos grâce à Sportograf19.1358VAN KRUISBERGEM Inconnu50NLD6:07:066:07:225:40 10.62400
Vos photos grâce à Sportograf20.1734TEIRBROOD Eddy50BEL6:08:476:09:065:41 10.57406HUMBEEK
Vos photos grâce à Sportograf21.1799KANTERS Frank50NLDDISCOVERY6:08:326:09:075:41 10.57407HEERLEN
Vos photos grâce à Sportograf22.1458VAN ZANDVOORT Rob54NLDGEEN6:18:246:18:325:50 10.30427AN SCHIMMERT
Vos photos grâce à Sportograf23.1911GRAEE Arne51NOR6:31:096:31:286:02 9.96437WOLUWE SAINT PIERRE
Vos photos grâce à Sportograf24.1375WEYERS Lei64NLD6:34:596:35:226:05 9.86441VENLO
Vos photos grâce à Sportograf25.1564GRIFT Jan53BEL6:35:346:36:056:06 9.85442PUTTEN
Vos photos grâce à Sportograf26.1535CASTREMAN Andre53BELAMBTHEUX6:39:076:39:186:09 9.77444PEPINSTER
Vos photos grâce à Sportograf27.1732KRATZ Peter54DEUKEIN CLUB6:39:216:39:466:10 9.76445ESCHWEILER
Vos photos grâce à Sportograf28.1793LATHOUWERS Marc53BEL6:56:086:56:296:25 9.36461TAVIGNY
Vos photos grâce à Sportograf29.1886VISSCHER Hans64NLD7:15:547:16:196:43 8.94479SLIEDRECHT
Vos photos grâce à SportografDNF1461JANS Jan55NLDLICHTVERZET
Vos photos grâce à SportografDNF1435VAN DER WEIJDE G52NLD
DNF: abandon; DSQ: disqualifié; Vitesse en km/h
Page: [1]